sensor_id;sensor_type;location;lat;lon;timestamp;P1;durP1;ratioP1;P2;durP2;ratioP2
82938;SDS011;72714;52.744;4.900;2024-03-17T00:01:01;9.48;;;3.80;;
82938;SDS011;72714;52.744;4.900;2024-03-17T00:03:27;9.43;;;3.75;;
82938;SDS011;72714;52.744;4.900;2024-03-17T00:05:56;9.25;;;3.85;;
82938;SDS011;72714;52.744;4.900;2024-03-17T00:08:22;8.80;;;3.53;;
82938;SDS011;72714;52.744;4.900;2024-03-17T00:10:50;8.57;;;3.87;;
82938;SDS011;72714;52.744;4.900;2024-03-17T00:13:19;7.80;;;3.20;;
82938;SDS011;72714;52.744;4.900;2024-03-17T00:15:46;10.20;;;3.60;;
82938;SDS011;72714;52.744;4.900;2024-03-17T00:18:12;7.85;;;3.42;;
82938;SDS011;72714;52.744;4.900;2024-03-17T00:20:38;7.87;;;3.30;;
82938;SDS011;72714;52.744;4.900;2024-03-17T00:23:03;10.53;;;3.50;;
82938;SDS011;72714;52.744;4.900;2024-03-17T00:25:32;9.35;;;3.47;;
82938;SDS011;72714;52.744;4.900;2024-03-17T00:27:59;7.22;;;2.97;;
82938;SDS011;72714;52.744;4.900;2024-03-17T00:30:25;11.15;;;3.58;;
82938;SDS011;72714;52.744;4.900;2024-03-17T00:32:50;8.37;;;3.27;;
82938;SDS011;72714;52.744;4.900;2024-03-17T00:35:16;8.63;;;3.10;;
82938;SDS011;72714;52.744;4.900;2024-03-17T00:37:49;8.03;;;3.20;;
82938;SDS011;72714;52.744;4.900;2024-03-17T00:40:15;9.60;;;3.42;;
82938;SDS011;72714;52.744;4.900;2024-03-17T00:42:43;9.00;;;3.25;;
82938;SDS011;72714;52.744;4.900;2024-03-17T00:45:12;9.37;;;3.40;;
82938;SDS011;72714;52.744;4.900;2024-03-17T00:47:37;9.63;;;2.90;;
82938;SDS011;72714;52.744;4.900;2024-03-17T00:50:03;9.52;;;3.45;;
82938;SDS011;72714;52.744;4.900;2024-03-17T00:52:31;9.75;;;3.25;;
82938;SDS011;72714;52.744;4.900;2024-03-17T00:54:57;9.77;;;3.37;;
82938;SDS011;72714;52.744;4.900;2024-03-17T00:57:22;9.77;;;3.50;;
82938;SDS011;72714;52.744;4.900;2024-03-17T00:59:48;10.60;;;3.47;;
82938;SDS011;72714;52.744;4.900;2024-03-17T01:02:16;7.72;;;3.17;;
82938;SDS011;72714;52.744;4.900;2024-03-17T01:04:42;8.15;;;3.13;;
82938;SDS011;72714;52.744;4.900;2024-03-17T01:07:08;9.82;;;3.20;;
82938;SDS011;72714;52.744;4.900;2024-03-17T01:09:37;9.05;;;3.17;;
82938;SDS011;72714;52.744;4.900;2024-03-17T01:12:03;8.13;;;3.10;;
82938;SDS011;72714;52.744;4.900;2024-03-17T01:14:29;10.88;;;3.60;;
82938;SDS011;72714;52.744;4.900;2024-03-17T01:16:55;11.73;;;3.40;;
82938;SDS011;72714;52.744;4.900;2024-03-17T01:19:21;8.57;;;3.20;;
82938;SDS011;72714;52.744;4.900;2024-03-17T01:21:46;9.77;;;3.50;;
82938;SDS011;72714;52.744;4.900;2024-03-17T01:24:12;7.77;;;3.00;;
82938;SDS011;72714;52.744;4.900;2024-03-17T01:26:38;9.10;;;3.40;;
82938;SDS011;72714;52.744;4.900;2024-03-17T01:29:04;9.13;;;3.22;;
82938;SDS011;72714;52.744;4.900;2024-03-17T01:31:29;10.68;;;3.60;;
82938;SDS011;72714;52.744;4.900;2024-03-17T01:33:55;8.83;;;3.27;;
82938;SDS011;72714;52.744;4.900;2024-03-17T01:36:21;7.93;;;3.00;;
82938;SDS011;72714;52.744;4.900;2024-03-17T01:38:46;9.10;;;3.50;;
82938;SDS011;72714;52.744;4.900;2024-03-17T01:41:12;9.70;;;3.60;;
82938;SDS011;72714;52.744;4.900;2024-03-17T01:43:38;6.78;;;3.08;;
82938;SDS011;72714;52.744;4.900;2024-03-17T01:46:04;10.27;;;3.83;;
82938;SDS011;72714;52.744;4.900;2024-03-17T01:48:30;8.10;;;3.35;;
82938;SDS011;72714;52.744;4.900;2024-03-17T01:50:56;9.30;;;3.30;;
82938;SDS011;72714;52.744;4.900;2024-03-17T01:53:22;8.13;;;3.50;;
82938;SDS011;72714;52.744;4.900;2024-03-17T01:55:50;7.97;;;3.45;;
82938;SDS011;72714;52.744;4.900;2024-03-17T01:58:16;8.43;;;3.63;;
82938;SDS011;72714;52.744;4.900;2024-03-17T02:00:43;7.90;;;3.75;;
82938;SDS011;72714;52.744;4.900;2024-03-17T02:03:08;11.03;;;4.00;;
82938;SDS011;72714;52.744;4.900;2024-03-17T02:05:34;8.03;;;3.60;;
82938;SDS011;72714;52.744;4.900;2024-03-17T02:08:02;10.07;;;4.40;;
82938;SDS011;72714;52.744;4.900;2024-03-17T02:10:29;8.77;;;4.45;;
82938;SDS011;72714;52.744;4.900;2024-03-17T02:12:54;9.77;;;4.10;;
82938;SDS011;72714;52.744;4.900;2024-03-17T02:15:20;8.30;;;3.93;;
82938;SDS011;72714;52.744;4.900;2024-03-17T02:17:45;9.73;;;4.30;;
82938;SDS011;72714;52.744;4.900;2024-03-17T02:20:11;12.25;;;4.88;;
82938;SDS011;72714;52.744;4.900;2024-03-17T02:22:37;10.00;;;4.40;;
82938;SDS011;72714;52.744;4.900;2024-03-17T02:25:03;9.40;;;4.35;;
82938;SDS011;72714;52.744;4.900;2024-03-17T02:27:29;9.55;;;4.53;;
82938;SDS011;72714;52.744;4.900;2024-03-17T02:29:54;10.95;;;4.60;;
82938;SDS011;72714;52.744;4.900;2024-03-17T02:32:20;11.38;;;4.55;;
82938;SDS011;72714;52.744;4.900;2024-03-17T02:34:47;9.75;;;4.40;;
82938;SDS011;72714;52.744;4.900;2024-03-17T02:37:13;9.63;;;4.00;;
82938;SDS011;72714;52.744;4.900;2024-03-17T02:39:39;11.07;;;4.20;;
82938;SDS011;72714;52.744;4.900;2024-03-17T02:42:05;9.80;;;4.40;;
82938;SDS011;72714;52.744;4.900;2024-03-17T02:44:32;12.27;;;4.60;;
82938;SDS011;72714;52.744;4.900;2024-03-17T02:46:59;12.95;;;4.63;;
82938;SDS011;72714;52.744;4.900;2024-03-17T02:49:25;11.43;;;4.28;;
82938;SDS011;72714;52.744;4.900;2024-03-17T02:52:09;12.38;;;4.75;;
82938;SDS011;72714;52.744;4.900;2024-03-17T02:54:35;8.82;;;4.32;;
82938;SDS011;72714;52.744;4.900;2024-03-17T02:57:02;11.00;;;4.68;;
82938;SDS011;72714;52.744;4.900;2024-03-17T02:59:28;10.45;;;4.50;;
82938;SDS011;72714;52.744;4.900;2024-03-17T03:01:53;10.47;;;4.57;;
82938;SDS011;72714;52.744;4.900;2024-03-17T03:04:19;10.00;;;4.47;;
82938;SDS011;72714;52.744;4.900;2024-03-17T03:06:45;12.02;;;4.65;;
82938;SDS011;72714;52.744;4.900;2024-03-17T03:09:10;12.97;;;4.80;;
82938;SDS011;72714;52.744;4.900;2024-03-17T03:11:43;16.25;;;4.95;;
82938;SDS011;72714;52.744;4.900;2024-03-17T03:14:08;10.13;;;4.57;;
82938;SDS011;72714;52.744;4.900;2024-03-17T03:16:34;10.90;;;4.63;;
82938;SDS011;72714;52.744;4.900;2024-03-17T03:18:59;11.43;;;4.97;;
82938;SDS011;72714;52.744;4.900;2024-03-17T03:21:25;11.47;;;4.97;;
82938;SDS011;72714;52.744;4.900;2024-03-17T03:23:51;11.27;;;5.50;;
82938;SDS011;72714;52.744;4.900;2024-03-17T03:26:16;11.88;;;5.30;;
82938;SDS011;72714;52.744;4.900;2024-03-17T03:28:43;12.73;;;5.70;;
82938;SDS011;72714;52.744;4.900;2024-03-17T03:31:12;9.75;;;5.18;;
82938;SDS011;72714;52.744;4.900;2024-03-17T03:33:41;12.20;;;5.57;;
82938;SDS011;72714;52.744;4.900;2024-03-17T03:36:07;13.27;;;5.72;;
82938;SDS011;72714;52.744;4.900;2024-03-17T03:38:36;10.82;;;5.30;;
82938;SDS011;72714;52.744;4.900;2024-03-17T03:41:09;11.70;;;5.50;;
82938;SDS011;72714;52.744;4.900;2024-03-17T03:43:35;11.73;;;5.43;;
82938;SDS011;72714;52.744;4.900;2024-03-17T03:46:01;11.23;;;5.40;;
82938;SDS011;72714;52.744;4.900;2024-03-17T03:48:27;13.60;;;5.93;;
82938;SDS011;72714;52.744;4.900;2024-03-17T03:50:53;10.87;;;5.57;;
82938;SDS011;72714;52.744;4.900;2024-03-17T03:53:19;12.45;;;5.72;;
82938;SDS011;72714;52.744;4.900;2024-03-17T03:55:45;13.80;;;6.23;;
82938;SDS011;72714;52.744;4.900;2024-03-17T03:58:11;13.07;;;6.10;;
82938;SDS011;72714;52.744;4.900;2024-03-17T04:00:38;12.90;;;6.35;;
82938;SDS011;72714;52.744;4.900;2024-03-17T04:03:04;14.25;;;6.40;;
82938;SDS011;72714;52.744;4.900;2024-03-17T04:05:30;11.77;;;5.95;;
82938;SDS011;72714;52.744;4.900;2024-03-17T04:07:56;12.70;;;6.30;;
82938;SDS011;72714;52.744;4.900;2024-03-17T04:10:21;10.65;;;6.07;;
82938;SDS011;72714;52.744;4.900;2024-03-17T04:12:48;11.25;;;6.30;;
82938;SDS011;72714;52.744;4.900;2024-03-17T04:15:13;11.73;;;6.23;;
82938;SDS011;72714;52.744;4.900;2024-03-17T04:17:39;12.90;;;6.73;;
82938;SDS011;72714;52.744;4.900;2024-03-17T04:20:05;10.23;;;6.35;;
82938;SDS011;72714;52.744;4.900;2024-03-17T04:22:34;13.43;;;6.78;;
82938;SDS011;72714;52.744;4.900;2024-03-17T04:25:00;14.38;;;6.82;;
82938;SDS011;72714;52.744;4.900;2024-03-17T04:27:26;11.67;;;6.17;;
82938;SDS011;72714;52.744;4.900;2024-03-17T04:29:52;12.82;;;6.18;;
82938;SDS011;72714;52.744;4.900;2024-03-17T04:32:18;11.70;;;6.18;;
82938;SDS011;72714;52.744;4.900;2024-03-17T04:34:44;10.98;;;6.20;;
82938;SDS011;72714;52.744;4.900;2024-03-17T04:37:10;11.70;;;6.30;;
82938;SDS011;72714;52.744;4.900;2024-03-17T04:39:37;12.20;;;6.22;;
82938;SDS011;72714;52.744;4.900;2024-03-17T04:42:04;11.63;;;6.65;;
82938;SDS011;72714;52.744;4.900;2024-03-17T04:44:31;10.98;;;6.38;;
82938;SDS011;72714;52.744;4.900;2024-03-17T04:46:56;12.10;;;6.67;;
82938;SDS011;72714;52.744;4.900;2024-03-17T04:49:22;12.03;;;6.63;;
82938;SDS011;72714;52.744;4.900;2024-03-17T04:51:47;10.95;;;6.88;;
82938;SDS011;72714;52.744;4.900;2024-03-17T04:54:13;14.20;;;7.60;;
82938;SDS011;72714;52.744;4.900;2024-03-17T04:56:38;11.47;;;7.33;;
82938;SDS011;72714;52.744;4.900;2024-03-17T04:59:04;12.40;;;7.00;;
82938;SDS011;72714;52.744;4.900;2024-03-17T05:01:30;12.02;;;7.38;;
82938;SDS011;72714;52.744;4.900;2024-03-17T05:04:04;13.90;;;7.43;;
82938;SDS011;72714;52.744;4.900;2024-03-17T05:06:30;11.65;;;7.35;;
82938;SDS011;72714;52.744;4.900;2024-03-17T05:08:56;14.82;;;7.82;;
82938;SDS011;72714;52.744;4.900;2024-03-17T05:11:22;12.85;;;7.50;;
82938;SDS011;72714;52.744;4.900;2024-03-17T05:13:49;12.30;;;7.75;;
82938;SDS011;72714;52.744;4.900;2024-03-17T05:16:14;14.30;;;7.97;;
82938;SDS011;72714;52.744;4.900;2024-03-17T05:18:40;14.17;;;8.00;;
82938;SDS011;72714;52.744;4.900;2024-03-17T05:21:06;14.37;;;8.23;;
82938;SDS011;72714;52.744;4.900;2024-03-17T05:23:35;13.40;;;8.07;;
82938;SDS011;72714;52.744;4.900;2024-03-17T05:26:04;14.45;;;8.18;;
82938;SDS011;72714;52.744;4.900;2024-03-17T05:28:30;14.20;;;8.47;;
82938;SDS011;72714;52.744;4.900;2024-03-17T05:30:56;12.50;;;7.97;;
82938;SDS011;72714;52.744;4.900;2024-03-17T05:33:23;12.50;;;7.90;;
82938;SDS011;72714;52.744;4.900;2024-03-17T05:35:50;13.05;;;8.07;;
82938;SDS011;72714;52.744;4.900;2024-03-17T05:38:27;13.65;;;8.00;;
82938;SDS011;72714;52.744;4.900;2024-03-17T05:41:05;12.93;;;8.43;;
82938;SDS011;72714;52.744;4.900;2024-03-17T05:43:32;11.45;;;8.20;;
82938;SDS011;72714;52.744;4.900;2024-03-17T05:46:02;12.25;;;8.35;;
82938;SDS011;72714;52.744;4.900;2024-03-17T05:48:35;15.10;;;9.10;;
82938;SDS011;72714;52.744;4.900;2024-03-17T05:51:09;15.33;;;8.57;;
82938;SDS011;72714;52.744;4.900;2024-03-17T05:53:35;12.93;;;8.63;;
82938;SDS011;72714;52.744;4.900;2024-03-17T05:56:02;14.75;;;8.93;;
82938;SDS011;72714;52.744;4.900;2024-03-17T05:58:28;13.20;;;8.73;;
82938;SDS011;72714;52.744;4.900;2024-03-17T06:00:54;12.43;;;8.57;;
82938;SDS011;72714;52.744;4.900;2024-03-17T06:03:19;12.63;;;8.30;;
82938;SDS011;72714;52.744;4.900;2024-03-17T06:05:46;13.23;;;8.60;;
82938;SDS011;72714;52.744;4.900;2024-03-17T06:08:12;14.47;;;8.90;;
82938;SDS011;72714;52.744;4.900;2024-03-17T06:10:38;14.37;;;8.60;;
82938;SDS011;72714;52.744;4.900;2024-03-17T06:13:07;12.93;;;9.00;;
82938;SDS011;72714;52.744;4.900;2024-03-17T06:15:37;13.53;;;8.83;;
82938;SDS011;72714;52.744;4.900;2024-03-17T06:18:03;13.43;;;9.23;;
82938;SDS011;72714;52.744;4.900;2024-03-17T06:20:28;14.40;;;9.32;;
82938;SDS011;72714;52.744;4.900;2024-03-17T06:22:54;13.93;;;9.20;;
82938;SDS011;72714;52.744;4.900;2024-03-17T06:25:20;13.83;;;8.57;;
82938;SDS011;72714;52.744;4.900;2024-03-17T06:27:49;12.93;;;8.98;;
82938;SDS011;72714;52.744;4.900;2024-03-17T06:30:15;14.05;;;9.30;;
82938;SDS011;72714;52.744;4.900;2024-03-17T06:32:41;10.80;;;8.20;;
82938;SDS011;72714;52.744;4.900;2024-03-17T06:35:07;13.60;;;8.57;;
82938;SDS011;72714;52.744;4.900;2024-03-17T06:37:43;13.63;;;8.85;;
82938;SDS011;72714;52.744;4.900;2024-03-17T06:40:13;12.02;;;8.82;;
82938;SDS011;72714;52.744;4.900;2024-03-17T06:42:39;14.40;;;8.70;;
82938;SDS011;72714;52.744;4.900;2024-03-17T06:45:05;14.15;;;8.65;;
82938;SDS011;72714;52.744;4.900;2024-03-17T06:47:34;13.20;;;8.40;;
82938;SDS011;72714;52.744;4.900;2024-03-17T06:50:01;12.40;;;8.13;;
82938;SDS011;72714;52.744;4.900;2024-03-17T06:52:27;11.80;;;8.30;;
82938;SDS011;72714;52.744;4.900;2024-03-17T06:54:52;12.10;;;8.30;;
82938;SDS011;72714;52.744;4.900;2024-03-17T06:57:18;13.10;;;8.97;;
82938;SDS011;72714;52.744;4.900;2024-03-17T06:59:43;13.18;;;8.82;;
82938;SDS011;72714;52.744;4.900;2024-03-17T07:02:11;13.15;;;8.27;;
82938;SDS011;72714;52.744;4.900;2024-03-17T07:04:40;13.57;;;8.50;;
82938;SDS011;72714;52.744;4.900;2024-03-17T07:07:06;13.90;;;8.67;;
82938;SDS011;72714;52.744;4.900;2024-03-17T07:09:31;13.20;;;8.43;;
82938;SDS011;72714;52.744;4.900;2024-03-17T07:11:57;13.33;;;8.93;;
82938;SDS011;72714;52.744;4.900;2024-03-17T07:14:22;14.80;;;9.10;;
82938;SDS011;72714;52.744;4.900;2024-03-17T07:16:50;13.32;;;9.20;;
82938;SDS011;72714;52.744;4.900;2024-03-17T07:19:16;14.53;;;9.23;;
82938;SDS011;72714;52.744;4.900;2024-03-17T07:21:41;12.63;;;9.15;;
82938;SDS011;72714;52.744;4.900;2024-03-17T07:24:07;13.53;;;9.70;;
82938;SDS011;72714;52.744;4.900;2024-03-17T07:26:32;14.00;;;8.97;;
82938;SDS011;72714;52.744;4.900;2024-03-17T07:28:58;12.60;;;9.30;;
82938;SDS011;72714;52.744;4.900;2024-03-17T07:31:24;12.97;;;8.77;;
82938;SDS011;72714;52.744;4.900;2024-03-17T07:33:49;12.35;;;9.07;;
82938;SDS011;72714;52.744;4.900;2024-03-17T07:36:15;11.52;;;8.30;;
82938;SDS011;72714;52.744;4.900;2024-03-17T07:38:40;12.83;;;8.53;;
82938;SDS011;72714;52.744;4.900;2024-03-17T07:41:06;12.93;;;9.27;;
82938;SDS011;72714;52.744;4.900;2024-03-17T07:43:34;14.67;;;9.40;;
82938;SDS011;72714;52.744;4.900;2024-03-17T07:46:05;13.75;;;9.18;;
82938;SDS011;72714;52.744;4.900;2024-03-17T07:48:35;13.18;;;8.88;;
82938;SDS011;72714;52.744;4.900;2024-03-17T07:51:05;13.02;;;9.10;;
82938;SDS011;72714;52.744;4.900;2024-03-17T07:53:40;11.80;;;8.57;;
82938;SDS011;72714;52.744;4.900;2024-03-17T07:56:09;12.95;;;8.70;;
82938;SDS011;72714;52.744;4.900;2024-03-17T07:58:37;12.85;;;9.15;;
82938;SDS011;72714;52.744;4.900;2024-03-17T08:01:05;12.75;;;9.18;;
82938;SDS011;72714;52.744;4.900;2024-03-17T08:03:33;13.23;;;9.68;;
82938;SDS011;72714;52.744;4.900;2024-03-17T08:05:59;13.48;;;9.60;;
82938;SDS011;72714;52.744;4.900;2024-03-17T08:08:26;12.82;;;9.27;;
82938;SDS011;72714;52.744;4.900;2024-03-17T08:10:51;13.10;;;9.27;;
82938;SDS011;72714;52.744;4.900;2024-03-17T08:13:17;12.97;;;9.20;;
82938;SDS011;72714;52.744;4.900;2024-03-17T08:15:43;14.70;;;10.05;;
82938;SDS011;72714;52.744;4.900;2024-03-17T08:18:10;13.30;;;9.20;;
82938;SDS011;72714;52.744;4.900;2024-03-17T08:20:39;14.82;;;9.65;;
82938;SDS011;72714;52.744;4.900;2024-03-17T08:23:06;13.00;;;9.33;;
82938;SDS011;72714;52.744;4.900;2024-03-17T08:25:34;12.25;;;9.10;;
82938;SDS011;72714;52.744;4.900;2024-03-17T08:28:00;14.40;;;10.00;;
82938;SDS011;72714;52.744;4.900;2024-03-17T08:30:26;12.68;;;9.00;;
82938;SDS011;72714;52.744;4.900;2024-03-17T08:32:52;12.10;;;9.35;;
82938;SDS011;72714;52.744;4.900;2024-03-17T08:35:17;13.37;;;9.13;;
82938;SDS011;72714;52.744;4.900;2024-03-17T08:37:43;12.90;;;9.90;;
82938;SDS011;72714;52.744;4.900;2024-03-17T08:40:10;13.27;;;9.73;;
82938;SDS011;72714;52.744;4.900;2024-03-17T08:42:36;12.63;;;9.32;;
82938;SDS011;72714;52.744;4.900;2024-03-17T08:45:01;13.27;;;9.63;;
82938;SDS011;72714;52.744;4.900;2024-03-17T08:47:28;13.18;;;9.82;;
82938;SDS011;72714;52.744;4.900;2024-03-17T08:49:53;13.35;;;9.65;;
82938;SDS011;72714;52.744;4.900;2024-03-17T08:52:19;13.10;;;9.55;;
82938;SDS011;72714;52.744;4.900;2024-03-17T08:54:46;14.33;;;9.60;;
82938;SDS011;72714;52.744;4.900;2024-03-17T08:57:12;12.80;;;9.80;;
82938;SDS011;72714;52.744;4.900;2024-03-17T08:59:38;13.02;;;9.68;;
82938;SDS011;72714;52.744;4.900;2024-03-17T09:02:03;13.70;;;9.50;;
82938;SDS011;72714;52.744;4.900;2024-03-17T09:04:29;13.53;;;10.50;;
82938;SDS011;72714;52.744;4.900;2024-03-17T09:06:54;12.57;;;9.47;;
82938;SDS011;72714;52.744;4.900;2024-03-17T09:09:21;12.93;;;9.18;;
82938;SDS011;72714;52.744;4.900;2024-03-17T09:11:47;12.75;;;9.68;;
82938;SDS011;72714;52.744;4.900;2024-03-17T09:14:13;12.73;;;9.90;;
82938;SDS011;72714;52.744;4.900;2024-03-17T09:16:38;11.83;;;9.63;;
82938;SDS011;72714;52.744;4.900;2024-03-17T09:19:04;12.97;;;9.50;;
82938;SDS011;72714;52.744;4.900;2024-03-17T09:21:29;13.27;;;9.63;;
82938;SDS011;72714;52.744;4.900;2024-03-17T09:23:55;13.00;;;9.73;;
82938;SDS011;72714;52.744;4.900;2024-03-17T09:26:20;13.37;;;9.90;;
82938;SDS011;72714;52.744;4.900;2024-03-17T09:28:46;11.88;;;9.38;;
82938;SDS011;72714;52.744;4.900;2024-03-17T09:31:11;14.03;;;9.87;;
82938;SDS011;72714;52.744;4.900;2024-03-17T09:33:37;11.97;;;8.87;;
82938;SDS011;72714;52.744;4.900;2024-03-17T09:36:04;11.80;;;9.05;;
82938;SDS011;72714;52.744;4.900;2024-03-17T09:38:34;13.75;;;9.73;;
82938;SDS011;72714;52.744;4.900;2024-03-17T09:41:00;12.75;;;9.30;;
82938;SDS011;72714;52.744;4.900;2024-03-17T09:43:27;13.13;;;9.70;;
82938;SDS011;72714;52.744;4.900;2024-03-17T09:45:57;12.87;;;9.17;;
82938;SDS011;72714;52.744;4.900;2024-03-17T09:48:23;12.53;;;9.50;;
82938;SDS011;72714;52.744;4.900;2024-03-17T09:50:55;11.75;;;8.98;;
82938;SDS011;72714;52.744;4.900;2024-03-17T09:53:23;13.38;;;9.77;;
82938;SDS011;72714;52.744;4.900;2024-03-17T09:55:50;12.55;;;9.43;;
82938;SDS011;72714;52.744;4.900;2024-03-17T09:58:17;13.43;;;9.30;;
82938;SDS011;72714;52.744;4.900;2024-03-17T10:00:43;12.30;;;9.27;;
82938;SDS011;72714;52.744;4.900;2024-03-17T10:03:09;12.27;;;9.52;;
82938;SDS011;72714;52.744;4.900;2024-03-17T10:05:34;12.33;;;9.53;;
82938;SDS011;72714;52.744;4.900;2024-03-17T10:08:00;12.97;;;9.67;;
82938;SDS011;72714;52.744;4.900;2024-03-17T10:10:25;12.65;;;9.60;;
82938;SDS011;72714;52.744;4.900;2024-03-17T10:12:51;13.20;;;9.23;;
82938;SDS011;72714;52.744;4.900;2024-03-17T10:15:17;12.70;;;9.52;;
82938;SDS011;72714;52.744;4.900;2024-03-17T10:17:43;11.77;;;9.45;;
82938;SDS011;72714;52.744;4.900;2024-03-17T10:20:19;12.37;;;9.70;;
82938;SDS011;72714;52.744;4.900;2024-03-17T10:22:58;12.77;;;9.65;;
82938;SDS011;72714;52.744;4.900;2024-03-17T10:25:28;13.70;;;9.40;;
82938;SDS011;72714;52.744;4.900;2024-03-17T10:27:54;11.48;;;8.90;;
82938;SDS011;72714;52.744;4.900;2024-03-17T10:30:21;13.52;;;9.70;;
82938;SDS011;72714;52.744;4.900;2024-03-17T10:32:54;14.20;;;10.10;;
82938;SDS011;72714;52.744;4.900;2024-03-17T10:35:33;11.57;;;9.60;;
82938;SDS011;72714;52.744;4.900;2024-03-17T10:38:05;12.98;;;9.50;;
82938;SDS011;72714;52.744;4.900;2024-03-17T10:40:32;14.90;;;9.73;;
82938;SDS011;72714;52.744;4.900;2024-03-17T10:43:01;11.63;;;9.35;;
82938;SDS011;72714;52.744;4.900;2024-03-17T10:45:27;14.80;;;10.13;;
82938;SDS011;72714;52.744;4.900;2024-03-17T10:47:56;12.30;;;9.77;;
82938;SDS011;72714;52.744;4.900;2024-03-17T10:50:25;12.23;;;9.85;;
82938;SDS011;72714;52.744;4.900;2024-03-17T10:52:55;12.87;;;9.97;;
82938;SDS011;72714;52.744;4.900;2024-03-17T10:55:46;12.63;;;9.48;;
82938;SDS011;72714;52.744;4.900;2024-03-17T10:58:23;12.63;;;9.38;;
82938;SDS011;72714;52.744;4.900;2024-03-17T11:00:52;12.25;;;9.25;;
82938;SDS011;72714;52.744;4.900;2024-03-17T11:03:18;11.68;;;9.18;;
82938;SDS011;72714;52.744;4.900;2024-03-17T11:05:44;14.05;;;9.18;;
82938;SDS011;72714;52.744;4.900;2024-03-17T11:08:14;13.15;;;9.73;;
82938;SDS011;72714;52.744;4.900;2024-03-17T11:10:48;11.75;;;9.13;;
82938;SDS011;72714;52.744;4.900;2024-03-17T11:13:28;12.60;;;9.43;;
82938;SDS011;72714;52.744;4.900;2024-03-17T11:15:54;12.02;;;9.15;;
82938;SDS011;72714;52.744;4.900;2024-03-17T11:21:19;11.90;;;9.90;;
82938;SDS011;72714;52.744;4.900;2024-03-17T11:23:57;12.57;;;9.60;;
82938;SDS011;72714;52.744;4.900;2024-03-17T11:26:27;13.85;;;9.70;;
82938;SDS011;72714;52.744;4.900;2024-03-17T11:28:54;12.10;;;9.67;;
82938;SDS011;72714;52.744;4.900;2024-03-17T11:31:40;11.23;;;9.20;;
82938;SDS011;72714;52.744;4.900;2024-03-17T11:34:26;13.70;;;9.48;;
82938;SDS011;72714;52.744;4.900;2024-03-17T11:36:53;12.00;;;9.43;;
82938;SDS011;72714;52.744;4.900;2024-03-17T11:39:20;12.82;;;9.88;;
82938;SDS011;72714;52.744;4.900;2024-03-17T11:41:50;13.15;;;9.75;;
82938;SDS011;72714;52.744;4.900;2024-03-17T11:47:01;13.23;;;9.10;;
82938;SDS011;72714;52.744;4.900;2024-03-17T11:49:39;12.55;;;9.50;;
82938;SDS011;72714;52.744;4.900;2024-03-17T11:54:36;14.15;;;9.93;;
82938;SDS011;72714;52.744;4.900;2024-03-17T11:57:03;12.35;;;8.95;;
82938;SDS011;72714;52.744;4.900;2024-03-17T11:59:31;13.00;;;9.20;;
82938;SDS011;72714;52.744;4.900;2024-03-17T12:01:57;11.93;;;9.35;;
82938;SDS011;72714;52.744;4.900;2024-03-17T12:04:23;10.88;;;8.32;;
82938;SDS011;72714;52.744;4.900;2024-03-17T12:06:56;13.45;;;9.40;;
82938;SDS011;72714;52.744;4.900;2024-03-17T12:09:22;12.60;;;9.40;;
82938;SDS011;72714;52.744;4.900;2024-03-17T12:12:05;12.45;;;8.45;;
82938;SDS011;72714;52.744;4.900;2024-03-17T12:14:34;13.27;;;9.20;;
82938;SDS011;72714;52.744;4.900;2024-03-17T12:17:01;14.47;;;9.40;;
82938;SDS011;72714;52.744;4.900;2024-03-17T12:19:28;11.98;;;9.43;;
82938;SDS011;72714;52.744;4.900;2024-03-17T12:21:54;12.10;;;8.93;;
82938;SDS011;72714;52.744;4.900;2024-03-17T12:24:22;12.40;;;8.82;;
82938;SDS011;72714;52.744;4.900;2024-03-17T12:26:52;11.60;;;8.90;;
82938;SDS011;72714;52.744;4.900;2024-03-17T12:29:32;12.90;;;8.55;;
82938;SDS011;72714;52.744;4.900;2024-03-17T12:32:02;13.40;;;8.32;;
82938;SDS011;72714;52.744;4.900;2024-03-17T12:34:31;11.18;;;8.85;;
82938;SDS011;72714;52.744;4.900;2024-03-17T12:36:58;12.80;;;9.10;;
82938;SDS011;72714;52.744;4.900;2024-03-17T12:39:24;12.50;;;8.38;;
82938;SDS011;72714;52.744;4.900;2024-03-17T12:42:27;11.43;;;8.20;;
82938;SDS011;72714;52.744;4.900;2024-03-17T12:44:49;14.23;;;9.02;;
82938;SDS011;72714;52.744;4.900;2024-03-17T12:47:17;11.93;;;8.40;;
82938;SDS011;72714;52.744;4.900;2024-03-17T12:54:57;11.93;;;8.38;;
82938;SDS011;72714;52.744;4.900;2024-03-17T12:57:44;11.38;;;8.50;;
82938;SDS011;72714;52.744;4.900;2024-03-17T13:00:29;12.95;;;9.00;;
82938;SDS011;72714;52.744;4.900;2024-03-17T13:02:57;13.10;;;8.75;;
82938;SDS011;72714;52.744;4.900;2024-03-17T13:05:29;11.32;;;8.13;;
82938;SDS011;72714;52.744;4.900;2024-03-17T13:07:56;11.45;;;8.52;;
82938;SDS011;72714;52.744;4.900;2024-03-17T13:10:23;12.50;;;8.60;;
82938;SDS011;72714;52.744;4.900;2024-03-17T13:13:12;12.20;;;8.40;;
82938;SDS011;72714;52.744;4.900;2024-03-17T13:15:37;11.98;;;8.52;;
82938;SDS011;72714;52.744;4.900;2024-03-17T13:18:03;12.65;;;8.52;;
82938;SDS011;72714;52.744;4.900;2024-03-17T13:20:30;11.40;;;8.70;;
82938;SDS011;72714;52.744;4.900;2024-03-17T13:22:59;10.98;;;8.23;;
82938;SDS011;72714;52.744;4.900;2024-03-17T13:25:26;12.43;;;9.02;;
82938;SDS011;72714;52.744;4.900;2024-03-17T13:27:55;11.55;;;8.32;;
82938;SDS011;72714;52.744;4.900;2024-03-17T13:30:21;13.10;;;7.83;;
82938;SDS011;72714;52.744;4.900;2024-03-17T13:32:52;11.60;;;8.45;;
82938;SDS011;72714;52.744;4.900;2024-03-17T13:35:24;11.70;;;8.48;;
82938;SDS011;72714;52.744;4.900;2024-03-17T13:37:51;13.40;;;8.73;;
82938;SDS011;72714;52.744;4.900;2024-03-17T13:40:18;11.00;;;8.63;;
82938;SDS011;72714;52.744;4.900;2024-03-17T13:42:48;12.77;;;9.07;;
82938;SDS011;72714;52.744;4.900;2024-03-17T13:45:14;12.43;;;9.20;;
82938;SDS011;72714;52.744;4.900;2024-03-17T13:47:41;11.18;;;8.43;;
82938;SDS011;72714;52.744;4.900;2024-03-17T13:50:07;12.07;;;9.27;;
82938;SDS011;72714;52.744;4.900;2024-03-17T13:52:38;11.93;;;8.65;;
82938;SDS011;72714;52.744;4.900;2024-03-17T13:55:04;13.05;;;9.27;;
82938;SDS011;72714;52.744;4.900;2024-03-17T13:57:33;15.32;;;9.40;;
82938;SDS011;72714;52.744;4.900;2024-03-17T13:59:59;16.37;;;10.07;;
82938;SDS011;72714;52.744;4.900;2024-03-17T14:02:24;11.90;;;9.03;;
82938;SDS011;72714;52.744;4.900;2024-03-17T14:04:50;14.23;;;10.20;;
82938;SDS011;72714;52.744;4.900;2024-03-17T14:07:15;13.90;;;9.60;;
82938;SDS011;72714;52.744;4.900;2024-03-17T14:09:41;14.03;;;9.83;;
82938;SDS011;72714;52.744;4.900;2024-03-17T14:12:09;16.50;;;10.57;;
82938;SDS011;72714;52.744;4.900;2024-03-17T14:14:35;15.40;;;10.30;;
82938;SDS011;72714;52.744;4.900;2024-03-17T14:17:00;15.47;;;10.40;;
82938;SDS011;72714;52.744;4.900;2024-03-17T14:19:26;13.73;;;9.77;;
82938;SDS011;72714;52.744;4.900;2024-03-17T14:21:52;13.38;;;10.13;;
82938;SDS011;72714;52.744;4.900;2024-03-17T14:24:17;13.45;;;9.82;;
82938;SDS011;72714;52.744;4.900;2024-03-17T14:26:43;16.13;;;10.10;;
82938;SDS011;72714;52.744;4.900;2024-03-17T14:29:08;15.10;;;10.30;;
82938;SDS011;72714;52.744;4.900;2024-03-17T14:31:36;12.85;;;9.98;;
82938;SDS011;72714;52.744;4.900;2024-03-17T14:34:05;13.85;;;9.68;;
82938;SDS011;72714;52.744;4.900;2024-03-17T14:36:31;12.93;;;9.23;;
82938;SDS011;72714;52.744;4.900;2024-03-17T14:38:58;12.00;;;9.27;;
82938;SDS011;72714;52.744;4.900;2024-03-17T14:41:30;14.05;;;10.27;;
82938;SDS011;72714;52.744;4.900;2024-03-17T14:43:56;12.63;;;9.40;;
82938;SDS011;72714;52.744;4.900;2024-03-17T14:46:25;13.60;;;9.40;;
82938;SDS011;72714;52.744;4.900;2024-03-17T14:48:52;13.70;;;10.15;;
82938;SDS011;72714;52.744;4.900;2024-03-17T14:51:18;13.52;;;9.68;;